sensor_id;sensor_type;location;lat;lon;timestamp;P1;durP1;ratioP1;P2;durP2;ratioP2
7181;SDS011;3632;42.724;23.298;2023-07-13T00:00:06;6.97;;;6.27;;
7181;SDS011;3632;42.724;23.298;2023-07-13T00:02:35;6.67;;;5.87;;
7181;SDS011;3632;42.724;23.298;2023-07-13T00:05:02;6.50;;;5.80;;
7181;SDS011;3632;42.724;23.298;2023-07-13T00:07:29;10.43;;;6.37;;
7181;SDS011;3632;42.724;23.298;2023-07-13T00:09:56;8.23;;;6.17;;
7181;SDS011;3632;42.724;23.298;2023-07-13T00:12:26;7.50;;;6.20;;
7181;SDS011;3632;42.724;23.298;2023-07-13T00:14:55;7.07;;;6.33;;
7181;SDS011;3632;42.724;23.298;2023-07-13T00:17:22;9.67;;;6.10;;
7181;SDS011;3632;42.724;23.298;2023-07-13T00:19:49;6.70;;;5.50;;
7181;SDS011;3632;42.724;23.298;2023-07-13T00:22:16;9.00;;;6.20;;
7181;SDS011;3632;42.724;23.298;2023-07-13T00:24:43;8.03;;;6.00;;
7181;SDS011;3632;42.724;23.298;2023-07-13T00:27:10;8.17;;;6.33;;
7181;SDS011;3632;42.724;23.298;2023-07-13T00:29:38;11.03;;;6.33;;
7181;SDS011;3632;42.724;23.298;2023-07-13T00:32:06;8.87;;;6.30;;
7181;SDS011;3632;42.724;23.298;2023-07-13T00:34:34;8.10;;;6.17;;
7181;SDS011;3632;42.724;23.298;2023-07-13T00:37:01;6.93;;;5.77;;
7181;SDS011;3632;42.724;23.298;2023-07-13T00:39:28;7.07;;;6.13;;
7181;SDS011;3632;42.724;23.298;2023-07-13T00:41:55;8.43;;;6.80;;
7181;SDS011;3632;42.724;23.298;2023-07-13T00:44:21;8.60;;;6.50;;
7181;SDS011;3632;42.724;23.298;2023-07-13T00:46:50;7.70;;;5.70;;
7181;SDS011;3632;42.724;23.298;2023-07-13T00:49:18;12.73;;;6.77;;
7181;SDS011;3632;42.724;23.298;2023-07-13T00:51:48;13.90;;;7.00;;
7181;SDS011;3632;42.724;23.298;2023-07-13T00:54:17;12.37;;;7.13;;
7181;SDS011;3632;42.724;23.298;2023-07-13T00:56:54;17.63;;;8.23;;
7181;SDS011;3632;42.724;23.298;2023-07-13T00:59:24;22.93;;;8.60;;
7181;SDS011;3632;42.724;23.298;2023-07-13T01:01:52;11.73;;;6.90;;
7181;SDS011;3632;42.724;23.298;2023-07-13T01:04:19;9.20;;;6.70;;
7181;SDS011;3632;42.724;23.298;2023-07-13T01:06:46;11.33;;;6.37;;
7181;SDS011;3632;42.724;23.298;2023-07-13T01:09:14;10.33;;;6.90;;
7181;SDS011;3632;42.724;23.298;2023-07-13T01:11:43;9.23;;;6.50;;
7181;SDS011;3632;42.724;23.298;2023-07-13T01:14:10;8.87;;;6.80;;
7181;SDS011;3632;42.724;23.298;2023-07-13T01:16:37;8.47;;;6.53;;
7181;SDS011;3632;42.724;23.298;2023-07-13T01:19:07;12.20;;;6.50;;
7181;SDS011;3632;42.724;23.298;2023-07-13T01:21:49;6.73;;;6.10;;
7181;SDS011;3632;42.724;23.298;2023-07-13T01:24:16;9.07;;;6.53;;
7181;SDS011;3632;42.724;23.298;2023-07-13T01:26:43;10.73;;;6.27;;
7181;SDS011;3632;42.724;23.298;2023-07-13T01:29:10;10.63;;;6.90;;
7181;SDS011;3632;42.724;23.298;2023-07-13T01:31:37;11.00;;;6.13;;
7181;SDS011;3632;42.724;23.298;2023-07-13T01:34:03;11.63;;;6.53;;
7181;SDS011;3632;42.724;23.298;2023-07-13T01:36:31;9.60;;;6.63;;
7181;SDS011;3632;42.724;23.298;2023-07-13T01:38:59;9.53;;;6.80;;
7181;SDS011;3632;42.724;23.298;2023-07-13T01:41:26;10.23;;;6.47;;
7181;SDS011;3632;42.724;23.298;2023-07-13T01:43:53;8.63;;;6.10;;
7181;SDS011;3632;42.724;23.298;2023-07-13T01:46:19;7.93;;;6.40;;
7181;SDS011;3632;42.724;23.298;2023-07-13T01:48:46;7.73;;;6.30;;
7181;SDS011;3632;42.724;23.298;2023-07-13T01:51:13;10.00;;;6.50;;
7181;SDS011;3632;42.724;23.298;2023-07-13T01:53:41;14.77;;;6.67;;
7181;SDS011;3632;42.724;23.298;2023-07-13T01:56:10;8.00;;;6.37;;
7181;SDS011;3632;42.724;23.298;2023-07-13T01:58:36;8.30;;;7.00;;
7181;SDS011;3632;42.724;23.298;2023-07-13T02:01:03;7.90;;;6.97;;
7181;SDS011;3632;42.724;23.298;2023-07-13T02:03:30;10.70;;;6.70;;
7181;SDS011;3632;42.724;23.298;2023-07-13T02:05:57;8.93;;;6.50;;
7181;SDS011;3632;42.724;23.298;2023-07-13T02:08:24;9.03;;;6.53;;
7181;SDS011;3632;42.724;23.298;2023-07-13T02:10:50;9.33;;;6.33;;
7181;SDS011;3632;42.724;23.298;2023-07-13T02:13:18;8.27;;;6.67;;
7181;SDS011;3632;42.724;23.298;2023-07-13T02:15:45;9.53;;;6.53;;
7181;SDS011;3632;42.724;23.298;2023-07-13T02:18:12;9.40;;;7.03;;
7181;SDS011;3632;42.724;23.298;2023-07-13T02:20:42;7.10;;;6.40;;
7181;SDS011;3632;42.724;23.298;2023-07-13T02:23:09;12.70;;;6.67;;
7181;SDS011;3632;42.724;23.298;2023-07-13T02:25:35;9.10;;;6.43;;
7181;SDS011;3632;42.724;23.298;2023-07-13T02:28:02;10.30;;;6.83;;
7181;SDS011;3632;42.724;23.298;2023-07-13T02:30:31;11.10;;;6.10;;
7181;SDS011;3632;42.724;23.298;2023-07-13T02:32:58;10.70;;;6.60;;
7181;SDS011;3632;42.724;23.298;2023-07-13T02:35:24;9.50;;;6.53;;
7181;SDS011;3632;42.724;23.298;2023-07-13T02:37:51;8.30;;;6.53;;
7181;SDS011;3632;42.724;23.298;2023-07-13T02:40:18;10.47;;;6.60;;
7181;SDS011;3632;42.724;23.298;2023-07-13T02:42:45;9.10;;;6.60;;
7181;SDS011;3632;42.724;23.298;2023-07-13T02:45:12;8.90;;;6.83;;
7181;SDS011;3632;42.724;23.298;2023-07-13T02:47:41;10.43;;;6.50;;
7181;SDS011;3632;42.724;23.298;2023-07-13T02:50:08;10.70;;;6.80;;
7181;SDS011;3632;42.724;23.298;2023-07-13T02:52:35;11.97;;;6.90;;
7181;SDS011;3632;42.724;23.298;2023-07-13T02:55:02;10.67;;;6.60;;
7181;SDS011;3632;42.724;23.298;2023-07-13T02:57:29;16.03;;;8.77;;
7181;SDS011;3632;42.724;23.298;2023-07-13T02:59:57;10.43;;;7.97;;
7181;SDS011;3632;42.724;23.298;2023-07-13T03:02:24;8.87;;;7.37;;
7181;SDS011;3632;42.724;23.298;2023-07-13T03:04:54;21.13;;;16.23;;
7181;SDS011;3632;42.724;23.298;2023-07-13T03:07:21;19.13;;;11.90;;
7181;SDS011;3632;42.724;23.298;2023-07-13T03:09:48;13.43;;;7.43;;
7181;SDS011;3632;42.724;23.298;2023-07-13T03:12:15;15.07;;;7.97;;
7181;SDS011;3632;42.724;23.298;2023-07-13T03:14:42;12.00;;;9.63;;
7181;SDS011;3632;42.724;23.298;2023-07-13T03:17:08;14.33;;;10.97;;
7181;SDS011;3632;42.724;23.298;2023-07-13T03:19:35;16.43;;;10.97;;
7181;SDS011;3632;42.724;23.298;2023-07-13T03:22:04;17.83;;;10.40;;
7181;SDS011;3632;42.724;23.298;2023-07-13T03:24:32;12.73;;;8.90;;
7181;SDS011;3632;42.724;23.298;2023-07-13T03:27:00;10.90;;;7.30;;
7181;SDS011;3632;42.724;23.298;2023-07-13T03:29:27;8.90;;;7.00;;
7181;SDS011;3632;42.724;23.298;2023-07-13T03:31:54;13.00;;;7.00;;
7181;SDS011;3632;42.724;23.298;2023-07-13T03:34:21;12.60;;;7.20;;
7181;SDS011;3632;42.724;23.298;2023-07-13T03:36:48;10.93;;;7.40;;
7181;SDS011;3632;42.724;23.298;2023-07-13T03:39:16;15.07;;;9.10;;
7181;SDS011;3632;42.724;23.298;2023-07-13T03:41:42;12.77;;;8.43;;
7181;SDS011;3632;42.724;23.298;2023-07-13T03:44:09;18.87;;;9.50;;
7181;SDS011;3632;42.724;23.298;2023-07-13T03:46:36;12.93;;;7.90;;
7181;SDS011;3632;42.724;23.298;2023-07-13T03:49:03;11.90;;;7.10;;
7181;SDS011;3632;42.724;23.298;2023-07-13T03:51:30;12.43;;;7.30;;
7181;SDS011;3632;42.724;23.298;2023-07-13T03:53:58;12.03;;;6.93;;
7181;SDS011;3632;42.724;23.298;2023-07-13T03:56:26;12.23;;;7.20;;
7181;SDS011;3632;42.724;23.298;2023-07-13T03:58:52;11.57;;;6.67;;
7181;SDS011;3632;42.724;23.298;2023-07-13T04:01:20;9.07;;;6.80;;
7181;SDS011;3632;42.724;23.298;2023-07-13T04:03:48;8.53;;;6.67;;
7181;SDS011;3632;42.724;23.298;2023-07-13T04:06:16;10.67;;;7.00;;
7181;SDS011;3632;42.724;23.298;2023-07-13T04:08:46;11.57;;;6.83;;
7181;SDS011;3632;42.724;23.298;2023-07-13T04:11:16;10.97;;;7.10;;
7181;SDS011;3632;42.724;23.298;2023-07-13T04:13:45;13.00;;;7.50;;
7181;SDS011;3632;42.724;23.298;2023-07-13T04:16:12;12.67;;;7.43;;
7181;SDS011;3632;42.724;23.298;2023-07-13T04:18:39;11.50;;;7.30;;
7181;SDS011;3632;42.724;23.298;2023-07-13T04:21:06;10.87;;;6.97;;
7181;SDS011;3632;42.724;23.298;2023-07-13T04:23:34;14.20;;;7.50;;
7181;SDS011;3632;42.724;23.298;2023-07-13T04:26:01;11.70;;;7.87;;
7181;SDS011;3632;42.724;23.298;2023-07-13T04:28:28;13.00;;;7.80;;
7181;SDS011;3632;42.724;23.298;2023-07-13T04:30:56;14.50;;;8.00;;
7181;SDS011;3632;42.724;23.298;2023-07-13T04:33:23;10.97;;;7.60;;
7181;SDS011;3632;42.724;23.298;2023-07-13T04:35:51;16.03;;;7.77;;
7181;SDS011;3632;42.724;23.298;2023-07-13T04:38:21;10.67;;;7.63;;
7181;SDS011;3632;42.724;23.298;2023-07-13T04:40:49;13.50;;;8.20;;
7181;SDS011;3632;42.724;23.298;2023-07-13T04:43:16;16.03;;;8.27;;
7181;SDS011;3632;42.724;23.298;2023-07-13T04:45:43;14.37;;;7.67;;
7181;SDS011;3632;42.724;23.298;2023-07-13T04:48:11;12.43;;;7.57;;
7181;SDS011;3632;42.724;23.298;2023-07-13T04:50:38;12.27;;;7.97;;
7181;SDS011;3632;42.724;23.298;2023-07-13T04:53:05;12.07;;;8.50;;
7181;SDS011;3632;42.724;23.298;2023-07-13T04:55:33;15.73;;;7.57;;
7181;SDS011;3632;42.724;23.298;2023-07-13T04:57:59;12.60;;;8.10;;
7181;SDS011;3632;42.724;23.298;2023-07-13T05:00:28;17.33;;;8.00;;
7181;SDS011;3632;42.724;23.298;2023-07-13T05:02:56;10.63;;;7.77;;
7181;SDS011;3632;42.724;23.298;2023-07-13T05:05:25;16.93;;;11.23;;
7181;SDS011;3632;42.724;23.298;2023-07-13T05:07:53;15.33;;;9.87;;
7181;SDS011;3632;42.724;23.298;2023-07-13T05:10:20;11.77;;;8.83;;
7181;SDS011;3632;42.724;23.298;2023-07-13T05:12:47;12.83;;;7.73;;
7181;SDS011;3632;42.724;23.298;2023-07-13T05:15:14;10.53;;;7.93;;
7181;SDS011;3632;42.724;23.298;2023-07-13T05:17:45;12.57;;;8.23;;
7181;SDS011;3632;42.724;23.298;2023-07-13T05:20:12;9.83;;;7.57;;
7181;SDS011;3632;42.724;23.298;2023-07-13T05:22:41;10.10;;;7.60;;
7181;SDS011;3632;42.724;23.298;2023-07-13T05:25:08;12.87;;;8.47;;
7181;SDS011;3632;42.724;23.298;2023-07-13T05:27:36;10.90;;;7.50;;
7181;SDS011;3632;42.724;23.298;2023-07-13T05:30:03;10.23;;;7.47;;
7181;SDS011;3632;42.724;23.298;2023-07-13T05:32:31;10.67;;;7.97;;
7181;SDS011;3632;42.724;23.298;2023-07-13T05:34:58;12.57;;;7.83;;
7181;SDS011;3632;42.724;23.298;2023-07-13T05:37:24;11.83;;;7.37;;
7181;SDS011;3632;42.724;23.298;2023-07-13T05:39:52;11.00;;;8.20;;
7181;SDS011;3632;42.724;23.298;2023-07-13T05:42:19;10.97;;;7.33;;
7181;SDS011;3632;42.724;23.298;2023-07-13T05:44:46;12.13;;;8.30;;
7181;SDS011;3632;42.724;23.298;2023-07-13T05:47:13;9.27;;;7.70;;
7181;SDS011;3632;42.724;23.298;2023-07-13T05:49:40;10.47;;;8.00;;
7181;SDS011;3632;42.724;23.298;2023-07-13T05:52:07;12.67;;;8.63;;
7181;SDS011;3632;42.724;23.298;2023-07-13T05:54:35;10.50;;;8.50;;
7181;SDS011;3632;42.724;23.298;2023-07-13T05:57:03;14.53;;;8.63;;
7181;SDS011;3632;42.724;23.298;2023-07-13T05:59:30;12.83;;;8.33;;
7181;SDS011;3632;42.724;23.298;2023-07-13T06:01:57;19.90;;;11.93;;
7181;SDS011;3632;42.724;23.298;2023-07-13T06:04:24;14.13;;;10.63;;
7181;SDS011;3632;42.724;23.298;2023-07-13T06:06:50;13.10;;;10.33;;
7181;SDS011;3632;42.724;23.298;2023-07-13T06:09:17;14.73;;;9.50;;
7181;SDS011;3632;42.724;23.298;2023-07-13T06:11:44;10.67;;;8.37;;
7181;SDS011;3632;42.724;23.298;2023-07-13T06:14:12;10.67;;;7.70;;
7181;SDS011;3632;42.724;23.298;2023-07-13T06:16:39;9.93;;;8.60;;
7181;SDS011;3632;42.724;23.298;2023-07-13T06:19:06;19.03;;;8.87;;
7181;SDS011;3632;42.724;23.298;2023-07-13T06:21:33;17.03;;;8.63;;
7181;SDS011;3632;42.724;23.298;2023-07-13T06:24:00;13.73;;;8.00;;
7181;SDS011;3632;42.724;23.298;2023-07-13T06:26:26;16.03;;;8.73;;
7181;SDS011;3632;42.724;23.298;2023-07-13T06:28:54;13.20;;;8.30;;
7181;SDS011;3632;42.724;23.298;2023-07-13T06:31:22;16.07;;;8.93;;
7181;SDS011;3632;42.724;23.298;2023-07-13T06:33:49;12.43;;;8.87;;
7181;SDS011;3632;42.724;23.298;2023-07-13T06:36:16;11.00;;;7.93;;
7181;SDS011;3632;42.724;23.298;2023-07-13T06:38:42;12.70;;;8.27;;
7181;SDS011;3632;42.724;23.298;2023-07-13T06:41:09;10.83;;;8.40;;
7181;SDS011;3632;42.724;23.298;2023-07-13T06:43:36;9.80;;;8.00;;
7181;SDS011;3632;42.724;23.298;2023-07-13T06:46:03;9.33;;;8.13;;
7181;SDS011;3632;42.724;23.298;2023-07-13T06:48:31;14.97;;;8.67;;
7181;SDS011;3632;42.724;23.298;2023-07-13T06:50:58;11.63;;;7.80;;
7181;SDS011;3632;42.724;23.298;2023-07-13T06:53:25;15.40;;;8.83;;
7181;SDS011;3632;42.724;23.298;2023-07-13T06:55:51;10.77;;;8.67;;
7181;SDS011;3632;42.724;23.298;2023-07-13T06:58:18;10.17;;;8.93;;
7181;SDS011;3632;42.724;23.298;2023-07-13T07:00:46;11.67;;;8.23;;
7181;SDS011;3632;42.724;23.298;2023-07-13T07:03:13;12.80;;;7.97;;
7181;SDS011;3632;42.724;23.298;2023-07-13T07:05:41;11.97;;;7.97;;
7181;SDS011;3632;42.724;23.298;2023-07-13T07:08:08;14.40;;;8.50;;
7181;SDS011;3632;42.724;23.298;2023-07-13T07:10:35;16.87;;;8.63;;
7181;SDS011;3632;42.724;23.298;2023-07-13T07:13:02;15.23;;;8.73;;
7181;SDS011;3632;42.724;23.298;2023-07-13T07:15:30;13.23;;;8.27;;
7181;SDS011;3632;42.724;23.298;2023-07-13T07:17:57;11.17;;;8.67;;
7181;SDS011;3632;42.724;23.298;2023-07-13T07:20:23;13.40;;;8.30;;
7181;SDS011;3632;42.724;23.298;2023-07-13T07:22:53;10.80;;;8.93;;
7181;SDS011;3632;42.724;23.298;2023-07-13T07:25:19;10.30;;;8.73;;
7181;SDS011;3632;42.724;23.298;2023-07-13T07:27:46;14.00;;;8.73;;
7181;SDS011;3632;42.724;23.298;2023-07-13T07:30:13;15.53;;;8.87;;
7181;SDS011;3632;42.724;23.298;2023-07-13T07:32:40;17.00;;;11.13;;
7181;SDS011;3632;42.724;23.298;2023-07-13T07:35:08;15.13;;;10.90;;
7181;SDS011;3632;42.724;23.298;2023-07-13T07:37:35;14.83;;;10.67;;
7181;SDS011;3632;42.724;23.298;2023-07-13T07:40:03;14.27;;;9.30;;
7181;SDS011;3632;42.724;23.298;2023-07-13T07:42:31;11.03;;;8.50;;
7181;SDS011;3632;42.724;23.298;2023-07-13T07:44:58;22.27;;;12.77;;
7181;SDS011;3632;42.724;23.298;2023-07-13T07:47:25;14.63;;;8.53;;
7181;SDS011;3632;42.724;23.298;2023-07-13T07:49:52;15.63;;;9.27;;
7181;SDS011;3632;42.724;23.298;2023-07-13T07:52:19;29.90;;;14.37;;
7181;SDS011;3632;42.724;23.298;2023-07-13T07:54:46;23.90;;;19.37;;
7181;SDS011;3632;42.724;23.298;2023-07-13T07:57:14;18.43;;;14.57;;
7181;SDS011;3632;42.724;23.298;2023-07-13T07:59:41;14.77;;;9.10;;
7181;SDS011;3632;42.724;23.298;2023-07-13T08:02:08;12.50;;;9.07;;
7181;SDS011;3632;42.724;23.298;2023-07-13T08:04:36;11.53;;;8.47;;
7181;SDS011;3632;42.724;23.298;2023-07-13T08:07:03;17.53;;;9.17;;
7181;SDS011;3632;42.724;23.298;2023-07-13T08:09:31;14.50;;;13.00;;
7181;SDS011;3632;42.724;23.298;2023-07-13T08:11:58;16.43;;;12.10;;
7181;SDS011;3632;42.724;23.298;2023-07-13T08:14:26;13.77;;;9.80;;
7181;SDS011;3632;42.724;23.298;2023-07-13T08:16:54;13.30;;;10.40;;
7181;SDS011;3632;42.724;23.298;2023-07-13T08:19:21;16.60;;;12.57;;
7181;SDS011;3632;42.724;23.298;2023-07-13T08:21:48;14.43;;;9.60;;
7181;SDS011;3632;42.724;23.298;2023-07-13T08:24:14;20.53;;;11.10;;
7181;SDS011;3632;42.724;23.298;2023-07-13T08:26:43;22.33;;;19.87;;
7181;SDS011;3632;42.724;23.298;2023-07-13T08:29:10;18.37;;;16.40;;
7181;SDS011;3632;42.724;23.298;2023-07-13T08:31:38;15.67;;;10.50;;
7181;SDS011;3632;42.724;23.298;2023-07-13T08:34:05;14.60;;;9.30;;
7181;SDS011;3632;42.724;23.298;2023-07-13T08:36:32;13.90;;;9.57;;
7181;SDS011;3632;42.724;23.298;2023-07-13T08:38:58;14.47;;;9.67;;
7181;SDS011;3632;42.724;23.298;2023-07-13T08:41:25;13.15;;;8.80;;
7181;SDS011;3632;42.724;23.298;2023-07-13T08:43:56;14.55;;;9.80;;
7181;SDS011;3632;42.724;23.298;2023-07-13T08:46:26;18.40;;;12.27;;
7181;SDS011;3632;42.724;23.298;2023-07-13T08:49:01;11.23;;;9.13;;
7181;SDS011;3632;42.724;23.298;2023-07-13T08:51:35;13.40;;;8.95;;
7181;SDS011;3632;42.724;23.298;2023-07-13T08:54:12;13.20;;;8.70;;
7181;SDS011;3632;42.724;23.298;2023-07-13T08:56:45;16.85;;;8.65;;
7181;SDS011;3632;42.724;23.298;2023-07-13T08:59:14;13.43;;;8.30;;
7181;SDS011;3632;42.724;23.298;2023-07-13T09:01:50;14.13;;;9.00;;
7181;SDS011;3632;42.724;23.298;2023-07-13T09:04:28;14.13;;;9.30;;
7181;SDS011;3632;42.724;23.298;2023-07-13T09:07:00;15.77;;;9.15;;
7181;SDS011;3632;42.724;23.298;2023-07-13T09:09:41;14.02;;;9.05;;
7181;SDS011;3632;42.724;23.298;2023-07-13T09:12:18;14.30;;;8.60;;
7181;SDS011;3632;42.724;23.298;2023-07-13T09:14:52;10.77;;;8.27;;
7181;SDS011;3632;42.724;23.298;2023-07-13T09:17:23;12.60;;;7.72;;
7181;SDS011;3632;42.724;23.298;2023-07-13T09:19:54;13.75;;;8.18;;
7181;SDS011;3632;42.724;23.298;2023-07-13T09:22:25;9.63;;;6.75;;
7181;SDS011;3632;42.724;23.298;2023-07-13T09:24:57;12.93;;;6.75;;
7181;SDS011;3632;42.724;23.298;2023-07-13T09:27:38;13.70;;;7.78;;
7181;SDS011;3632;42.724;23.298;2023-07-13T09:30:17;15.60;;;7.65;;
7181;SDS011;3632;42.724;23.298;2023-07-13T09:32:52;10.00;;;7.80;;
7181;SDS011;3632;42.724;23.298;2023-07-13T09:35:21;11.48;;;7.90;;
7181;SDS011;3632;42.724;23.298;2023-07-13T09:37:56;12.20;;;8.00;;
7181;SDS011;3632;42.724;23.298;2023-07-13T09:40:32;14.50;;;7.70;;
7181;SDS011;3632;42.724;23.298;2023-07-13T09:43:10;10.52;;;7.40;;
7181;SDS011;3632;42.724;23.298;2023-07-13T09:45:41;10.35;;;7.50;;
7181;SDS011;3632;42.724;23.298;2023-07-13T09:48:13;12.73;;;6.97;;
7181;SDS011;3632;42.724;23.298;2023-07-13T09:50:44;14.75;;;7.45;;
7181;SDS011;3632;42.724;23.298;2023-07-13T09:53:11;10.65;;;6.60;;
7181;SDS011;3632;42.724;23.298;2023-07-13T09:55:40;12.73;;;7.25;;
7181;SDS011;3632;42.724;23.298;2023-07-13T09:58:10;10.13;;;7.72;;
7181;SDS011;3632;42.724;23.298;2023-07-13T10:00:40;11.70;;;7.18;;
7181;SDS011;3632;42.724;23.298;2023-07-13T10:03:16;10.10;;;7.43;;
7181;SDS011;3632;42.724;23.298;2023-07-13T10:05:47;15.05;;;7.28;;
7181;SDS011;3632;42.724;23.298;2023-07-13T10:08:17;6.63;;;4.78;;
7181;SDS011;3632;42.724;23.298;2023-07-13T10:10:45;10.05;;;4.95;;
7181;SDS011;3632;42.724;23.298;2023-07-13T10:13:29;10.13;;;5.22;;
7181;SDS011;3632;42.724;23.298;2023-07-13T10:15:59;9.85;;;4.93;;
7181;SDS011;3632;42.724;23.298;2023-07-13T10:18:26;5.43;;;4.93;;
7181;SDS011;3632;42.724;23.298;2023-07-13T10:21:00;10.88;;;5.10;;
7181;SDS011;3632;42.724;23.298;2023-07-13T10:23:37;6.70;;;4.38;;
7181;SDS011;3632;42.724;23.298;2023-07-13T10:26:04;8.75;;;4.70;;
7181;SDS011;3632;42.724;23.298;2023-07-13T10:28:36;7.00;;;4.80;;
7181;SDS011;3632;42.724;23.298;2023-07-13T10:31:06;12.40;;;5.43;;
7181;SDS011;3632;42.724;23.298;2023-07-13T10:33:38;9.10;;;4.70;;
7181;SDS011;3632;42.724;23.298;2023-07-13T10:38:57;10.73;;;4.80;;
7181;SDS011;3632;42.724;23.298;2023-07-13T10:41:27;8.10;;;4.75;;
7181;SDS011;3632;42.724;23.298;2023-07-13T10:43:58;5.95;;;4.70;;
7181;SDS011;3632;42.724;23.298;2023-07-13T10:46:27;10.10;;;4.68;;
7181;SDS011;3632;42.724;23.298;2023-07-13T10:48:56;6.88;;;4.50;;
7181;SDS011;3632;42.724;23.298;2023-07-13T10:51:25;6.80;;;4.78;;
7181;SDS011;3632;42.724;23.298;2023-07-13T10:56:48;7.35;;;4.80;;
7181;SDS011;3632;42.724;23.298;2023-07-13T10:59:17;9.43;;;4.75;;
7181;SDS011;3632;42.724;23.298;2023-07-13T11:01:55;6.28;;;4.35;;
7181;SDS011;3632;42.724;23.298;2023-07-13T11:04:24;5.20;;;3.95;;
7181;SDS011;3632;42.724;23.298;2023-07-13T11:06:56;7.82;;;4.45;;
7181;SDS011;3632;42.724;23.298;2023-07-13T11:09:32;8.52;;;5.80;;
7181;SDS011;3632;42.724;23.298;2023-07-13T11:12:03;8.45;;;4.97;;
7181;SDS011;3632;42.724;23.298;2023-07-13T11:14:35;6.10;;;4.18;;
7181;SDS011;3632;42.724;23.298;2023-07-13T11:23:17;6.75;;;4.30;;
7181;SDS011;3632;42.724;23.298;2023-07-13T11:25:55;6.03;;;4.47;;
7181;SDS011;3632;42.724;23.298;2023-07-13T11:28:23;8.30;;;4.75;;
7181;SDS011;3632;42.724;23.298;2023-07-13T11:31:02;7.78;;;4.75;;
7181;SDS011;3632;42.724;23.298;2023-07-13T11:36:29;7.18;;;4.40;;
7181;SDS011;3632;42.724;23.298;2023-07-13T11:39:04;12.45;;;4.80;;
7181;SDS011;3632;42.724;23.298;2023-07-13T11:41:43;8.65;;;4.75;;
7181;SDS011;3632;42.724;23.298;2023-07-13T11:44:12;6.82;;;4.70;;
7181;SDS011;3632;42.724;23.298;2023-07-13T11:46:44;12.48;;;4.88;;
7181;SDS011;3632;42.724;23.298;2023-07-13T11:49:13;9.77;;;4.80;;
7181;SDS011;3632;42.724;23.298;2023-07-13T11:51:43;4.88;;;4.28;;
7181;SDS011;3632;42.724;23.298;2023-07-13T11:54:15;8.85;;;4.78;;
7181;SDS011;3632;42.724;23.298;2023-07-13T11:56:51;7.82;;;4.75;;
7181;SDS011;3632;42.724;23.298;2023-07-13T11:59:19;10.13;;;4.72;;
7181;SDS011;3632;42.724;23.298;2023-07-13T12:01:47;4.85;;;4.45;;
7181;SDS011;3632;42.724;23.298;2023-07-13T12:04:20;9.85;;;5.40;;
7181;SDS011;3632;42.724;23.298;2023-07-13T12:06:54;5.22;;;4.68;;
7181;SDS011;3632;42.724;23.298;2023-07-13T12:09:25;7.95;;;4.75;;
7181;SDS011;3632;42.724;23.298;2023-07-13T12:11:55;9.60;;;5.40;;
7181;SDS011;3632;42.724;23.298;2023-07-13T12:14:23;7.32;;;5.07;;
7181;SDS011;3632;42.724;23.298;2023-07-13T12:16:51;9.65;;;5.00;;
7181;SDS011;3632;42.724;23.298;2023-07-13T12:19:20;7.55;;;5.20;;
7181;SDS011;3632;42.724;23.298;2023-07-13T12:21:49;10.73;;;4.75;;
7181;SDS011;3632;42.724;23.298;2023-07-13T12:24:19;6.50;;;4.65;;
7181;SDS011;3632;42.724;23.298;2023-07-13T12:26:51;8.02;;;4.75;;
7181;SDS011;3632;42.724;23.298;2023-07-13T12:29:19;7.55;;;5.25;;
7181;SDS011;3632;42.724;23.298;2023-07-13T12:31:46;9.75;;;4.53;;
7181;SDS011;3632;42.724;23.298;2023-07-13T12:34:15;7.07;;;4.78;;
7181;SDS011;3632;42.724;23.298;2023-07-13T12:36:45;7.25;;;4.78;;
7181;SDS011;3632;42.724;23.298;2023-07-13T12:39:15;9.00;;;4.53;;
7181;SDS011;3632;42.724;23.298;2023-07-13T12:41:44;6.78;;;4.70;;
7181;SDS011;3632;42.724;23.298;2023-07-13T12:44:13;7.38;;;5.00;;
7181;SDS011;3632;42.724;23.298;2023-07-13T12:46:50;6.55;;;5.13;;
7181;SDS011;3632;42.724;23.298;2023-07-13T12:49:21;7.45;;;5.22;;
7181;SDS011;3632;42.724;23.298;2023-07-13T12:51:55;6.93;;;4.65;;
7181;SDS011;3632;42.724;23.298;2023-07-13T12:54:24;7.28;;;4.47;;
7181;SDS011;3632;42.724;23.298;2023-07-13T12:56:51;9.23;;;5.43;;
7181;SDS011;3632;42.724;23.298;2023-07-13T12:59:22;8.82;;;5.18;;
7181;SDS011;3632;42.724;23.298;2023-07-13T13:01:51;10.60;;;4.75;;
7181;SDS011;3632;42.724;23.298;2023-07-13T13:04:19;7.18;;;4.93;;
7181;SDS011;3632;42.724;23.298;2023-07-13T13:06:47;8.93;;;4.60;;
7181;SDS011;3632;42.724;23.298;2023-07-13T13:09:15;8.15;;;4.53;;
7181;SDS011;3632;42.724;23.298;2023-07-13T13:11:43;5.82;;;4.70;;
7181;SDS011;3632;42.724;23.298;2023-07-13T13:14:10;7.22;;;5.10;;
7181;SDS011;3632;42.724;23.298;2023-07-13T13:16:40;9.15;;;5.28;;
7181;SDS011;3632;42.724;23.298;2023-07-13T13:19:13;8.38;;;4.78;;
7181;SDS011;3632;42.724;23.298;2023-07-13T13:21:42;9.25;;;4.70;;
7181;SDS011;3632;42.724;23.298;2023-07-13T13:24:11;8.48;;;4.80;;
7181;SDS011;3632;42.724;23.298;2023-07-13T13:26:39;8.70;;;5.05;;
7181;SDS011;3632;42.724;23.298;2023-07-13T13:29:09;8.60;;;5.25;;
7181;SDS011;3632;42.724;23.298;2023-07-13T13:31:41;8.15;;;4.60;;
7181;SDS011;3632;42.724;23.298;2023-07-13T13:34:09;11.30;;;5.40;;
7181;SDS011;3632;42.724;23.298;2023-07-13T13:36:36;5.80;;;4.65;;
7181;SDS011;3632;42.724;23.298;2023-07-13T13:39:05;9.88;;;4.40;;
7181;SDS011;3632;42.724;23.298;2023-07-13T13:41:42;11.00;;;5.00;;
7181;SDS011;3632;42.724;23.298;2023-07-13T13:44:08;6.43;;;4.60;;
7181;SDS011;3632;42.724;23.298;2023-07-13T13:46:35;7.63;;;4.78;;
7181;SDS011;3632;42.724;23.298;2023-07-13T13:49:04;8.55;;;4.65;;
7181;SDS011;3632;42.724;23.298;2023-07-13T13:51:31;9.88;;;4.45;;
7181;SDS011;3632;42.724;23.298;2023-07-13T13:53:58;6.32;;;5.00;;
7181;SDS011;3632;42.724;23.298;2023-07-13T13:56:26;10.93;;;5.55;;
7181;SDS011;3632;42.724;23.298;2023-07-13T13:58:53;6.53;;;4.45;;
7181;SDS011;3632;42.724;23.298;2023-07-13T14:01:20;10.05;;;4.30;;
7181;SDS011;3632;42.724;23.298;2023-07-13T14:03:49;7.65;;;4.63;;
7181;SDS011;3632;42.724;23.298;2023-07-13T14:06:18;8.18;;;5.45;;
7181;SDS011;3632;42.724;23.298;2023-07-13T14:08:45;7.93;;;4.90;;
7181;SDS011;3632;42.724;23.298;2023-07-13T14:11:12;5.93;;;4.57;;
7181;SDS011;3632;42.724;23.298;2023-07-13T14:13:42;7.60;;;5.03;;
7181;SDS011;3632;42.724;23.298;2023-07-13T14:16:12;8.93;;;4.82;;
7181;SDS011;3632;42.724;23.298;2023-07-13T14:18:43;7.57;;;4.70;;
7181;SDS011;3632;42.724;23.298;2023-07-13T14:21:11;8.55;;;5.13;;
7181;SDS011;3632;42.724;23.298;2023-07-13T14:23:41;7.38;;;4.95;;
7181;SDS011;3632;42.724;23.298;2023-07-13T14:26:11;8.32;;;4.70;;
7181;SDS011;3632;42.724;23.298;2023-07-13T14:28:41;8.73;;;4.65;;
7181;SDS011;3632;42.724;23.298;2023-07-13T14:31:09;10.55;;;4.80;;
7181;SDS011;3632;42.724;23.298;2023-07-13T14:33:39;9.98;;;4.80;;
7181;SDS011;3632;42.724;23.298;2023-07-13T14:36:09;7.65;;;4.57;;
7181;SDS011;3632;42.724;23.298;2023-07-13T14:38:49;8.60;;;4.57;;
7181;SDS011;3632;42.724;23.298;2023-07-13T14:41:16;12.32;;;5.45;;
7181;SDS011;3632;42.724;23.298;2023-07-13T14:43:42;8.85;;;4.82;;
7181;SDS011;3632;42.724;23.298;2023-07-13T14:46:11;9.70;;;4.72;;
7181;SDS011;3632;42.724;23.298;2023-07-13T14:49:05;7.50;;;5.18;;
7181;SDS011;3632;42.724;23.298;2023-07-13T14:51:41;11.02;;;5.45;;
7181;SDS011;3632;42.724;23.298;2023-07-13T14:54:09;9.70;;;5.05;;
7181;SDS011;3632;42.724;23.298;2023-07-13T14:56:36;11.45;;;4.97;;
7181;SDS011;3632;42.724;23.298;2023-07-13T14:59:03;8.95;;;4.80;;
7181;SDS011;3632;42.724;23.298;2023-07-13T15:01:35;9.60;;;4.80;;
7181;SDS011;3632;42.724;23.298;2023-07-13T15:04:03;9.38;;;4.80;;
7181;SDS011;3632;42.724;23.298;2023-07-13T15:06:30;5.85;;;4.38;;
7181;SDS011;3632;42.724;23.298;2023-07-13T15:08:57;7.75;;;4.75;;
7181;SDS011;3632;42.724;23.298;2023-07-13T15:11:25;8.80;;;4.90;;
7181;SDS011;3632;42.724;23.298;2023-07-13T15:13:52;6.35;;;4.57;;
7181;SDS011;3632;42.724;23.298;2023-07-13T15:16:21;5.88;;;5.00;;